createdAt,value
2019-04-30T00:01:59.040Z,17.98
2019-04-30T00:05:05.347Z,17.95
2019-04-30T00:08:09.434Z,17.37
2019-04-30T00:11:17.953Z,17.48
2019-04-30T00:14:19.663Z,18.07
2019-04-30T00:17:25.653Z,17.85
2019-04-30T00:20:34.632Z,18.73
2019-04-30T00:23:36.240Z,18.65
2019-04-30T00:26:46.693Z,19.07
2019-04-30T00:29:46.533Z,19.60
2019-04-30T00:32:50.793Z,19.62
2019-04-30T00:35:58.001Z,19.00
2019-04-30T00:39:01.324Z,20.85
2019-04-30T00:42:05.555Z,20.88
2019-04-30T00:45:10.827Z,21.02
2019-04-30T00:48:19.419Z,22.25
2019-04-30T00:51:21.570Z,21.90
2019-04-30T00:54:27.985Z,21.00
2019-04-30T00:57:31.862Z,22.58
2019-04-30T01:00:45.479Z,22.05
2019-04-30T01:03:55.840Z,20.97
2019-04-30T01:07:05.258Z,22.62
2019-04-30T01:10:07.053Z,22.37
2019-04-30T01:13:12.130Z,23.12
2019-04-30T01:16:16.586Z,24.27
2019-04-30T01:19:29.460Z,23.52
2019-04-30T01:22:31.185Z,24.35
2019-04-30T01:25:33.235Z,22.70
2019-04-30T01:28:38.609Z,22.55
2019-04-30T01:31:43.084Z,21.85
2019-04-30T01:34:49.873Z,20.45
2019-04-30T01:37:53.469Z,19.67
2019-04-30T01:40:59.495Z,20.30
2019-04-30T01:44:08.632Z,19.27
2019-04-30T01:47:10.174Z,17.80
2019-04-30T01:50:14.774Z,18.30
2019-04-30T01:53:19.072Z,18.87
2019-04-30T01:56:40.603Z,18.70
2019-04-30T02:00:02.552Z,18.98
2019-04-30T02:03:06.882Z,19.12
2019-04-30T02:06:11.556Z,20.70
2019-04-30T02:09:16.125Z,23.85
2019-04-30T02:12:21.898Z,24.10
2019-04-30T02:15:26.640Z,24.67
2019-04-30T02:18:30.901Z,27.45
2019-04-30T02:21:35.139Z,27.48
2019-04-30T02:24:39.361Z,27.48
2019-04-30T02:27:43.765Z,26.15
2019-04-30T02:30:50.370Z,27.67
2019-04-30T02:34:00.479Z,30.48
2019-04-30T02:37:11.146Z,27.67
2019-04-30T02:40:15.467Z,33.35
2019-04-30T02:43:21.838Z,37.28
2019-04-30T02:46:29.199Z,37.03
2019-04-30T02:49:34.853Z,32.35
2019-04-30T02:52:41.690Z,33.55
2019-04-30T02:55:45.911Z,32.10
2019-04-30T02:58:50.762Z,29.63
2019-04-30T03:01:55.218Z,32.67
2019-04-30T03:05:00.263Z,31.05
2019-04-30T03:08:04.711Z,32.65
2019-04-30T03:11:09.784Z,33.20
2019-04-30T03:14:14.223Z,32.78
2019-04-30T03:17:39.436Z,32.45
2019-04-30T03:20:59.600Z,31.02
2019-04-30T03:24:03.098Z,31.52
2019-04-30T03:27:09.645Z,33.02
2019-04-30T03:30:13.760Z,34.30
2019-04-30T03:33:22.393Z,35.15
2019-04-30T03:36:24.083Z,37.00
2019-04-30T03:39:29.746Z,38.02
2019-04-30T03:42:34.366Z,39.63
2019-04-30T03:45:40.292Z,39.30
2019-04-30T03:49:04.165Z,39.63
2019-04-30T03:52:09.987Z,40.10
2019-04-30T03:55:14.368Z,39.92
2019-04-30T03:58:21.303Z,40.88
2019-04-30T04:01:43.683Z,40.00
2019-04-30T04:04:55.745Z,34.33
2019-04-30T04:08:05.471Z,33.83
2019-04-30T04:11:16.556Z,32.58
2019-04-30T04:14:20.891Z,32.90
2019-04-30T04:17:25.236Z,30.40
2019-04-30T04:20:29.958Z,30.40
2019-04-30T04:23:34.307Z,31.77
2019-04-30T04:26:40.806Z,31.33
2019-04-30T04:29:44.550Z,29.63
2019-04-30T04:32:50.118Z,31.37
2019-04-30T04:35:54.560Z,40.90
2019-04-30T04:39:00.125Z,30.48
2019-04-30T04:42:04.989Z,29.65
2019-04-30T04:45:09.959Z,29.52
2019-04-30T04:48:14.587Z,28.75
2019-04-30T04:51:31.350Z,26.82
2019-04-30T04:54:25.439Z,24.65
2019-04-30T04:57:30.514Z,24.25
2019-04-30T05:00:35.222Z,23.85
2019-04-30T05:03:40.262Z,23.80
2019-04-30T05:06:44.485Z,23.83
2019-04-30T05:09:49.025Z,22.02
2019-04-30T05:12:53.615Z,22.20
2019-04-30T05:15:59.414Z,21.60
2019-04-30T05:19:03.996Z,20.82
2019-04-30T05:22:09.236Z,20.75
2019-04-30T05:25:13.625Z,21.30
2019-04-30T05:28:18.872Z,21.02
2019-04-30T05:31:23.930Z,21.15
2019-04-30T05:34:28.813Z,21.07
2019-04-30T05:37:33.497Z,21.02
2019-04-30T05:40:39.536Z,20.48
2019-04-30T05:43:44.010Z,20.77
2019-04-30T05:46:49.397Z,20.85
2019-04-30T05:49:53.834Z,20.82
2019-04-30T05:52:59.207Z,19.85
2019-04-30T05:56:03.654Z,19.40
2019-04-30T05:59:09.013Z,18.92
2019-04-30T06:02:13.629Z,18.98
2019-04-30T06:05:18.749Z,16.82
2019-04-30T06:08:25.457Z,17.67
2019-04-30T06:12:04.004Z,17.17
2019-04-30T06:15:30.454Z,16.65
2019-04-30T06:18:34.767Z,16.70
2019-04-30T06:21:39.156Z,18.00
2019-04-30T06:24:43.660Z,17.32
2019-04-30T06:27:48.889Z,18.15
2019-04-30T06:30:54.116Z,17.52
2019-04-30T06:33:58.640Z,18.70
2019-04-30T06:37:03.066Z,18.40
2019-04-30T06:40:11.485Z,18.98
2019-04-30T06:43:14.851Z,18.98
2019-04-30T06:46:19.197Z,20.25
2019-04-30T06:49:28.842Z,20.72
2019-04-30T06:52:33.117Z,20.50
2019-04-30T06:55:39.244Z,21.17
2019-04-30T06:58:43.287Z,21.15
2019-04-30T07:01:48.944Z,21.07
2019-04-30T07:04:53.312Z,21.60
2019-04-30T07:08:15.193Z,20.75
2019-04-30T07:11:22.809Z,20.95
2019-04-30T07:14:29.158Z,21.00
2019-04-30T07:17:33.150Z,21.55
2019-04-30T07:20:38.736Z,20.48
2019-04-30T07:23:43.061Z,20.80
2019-04-30T07:26:48.985Z,19.65
2019-04-30T07:29:53.385Z,19.57
2019-04-30T07:32:59.647Z,19.27
2019-04-30T07:36:03.579Z,19.37
2019-04-30T07:39:10.049Z,20.43
2019-04-30T07:42:14.254Z,19.75
2019-04-30T07:45:19.503Z,21.25
2019-04-30T07:48:26.483Z,19.57
2019-04-30T07:51:32.184Z,19.67
2019-04-30T07:54:36.141Z,19.87
2019-04-30T07:57:40.661Z,19.67
2019-04-30T08:00:45.202Z,20.10
2019-04-30T08:03:59.067Z,20.50
2019-04-30T08:07:04.990Z,20.15
2019-04-30T08:10:10.032Z,21.73
2019-04-30T08:13:15.509Z,21.27
2019-04-30T08:16:20.572Z,20.80
2019-04-30T08:19:24.778Z,21.73
2019-04-30T08:22:29.748Z,21.10
2019-04-30T08:25:34.113Z,22.00
2019-04-30T08:28:38.769Z,21.62
2019-04-30T08:31:43.108Z,21.90
2019-04-30T08:34:47.390Z,22.50
2019-04-30T08:37:51.658Z,20.77
2019-04-30T08:40:58.261Z,21.33
2019-04-30T08:44:02.080Z,22.52
2019-04-30T08:47:06.326Z,21.82
2019-04-30T08:50:11.970Z,22.27
2019-04-30T08:53:26.551Z,21.37
2019-04-30T08:56:22.224Z,21.65
2019-04-30T08:59:26.680Z,23.60
2019-04-30T09:02:30.986Z,24.20
2019-04-30T09:05:53.049Z,22.58
2019-04-30T09:09:00.468Z,23.40
2019-04-30T09:12:04.726Z,23.25
2019-04-30T09:15:09.220Z,24.35
2019-04-30T09:18:13.783Z,23.92
2019-04-30T09:21:18.668Z,23.27
2019-04-30T09:24:23.016Z,24.98
2019-04-30T09:27:29.426Z,27.15
2019-04-30T09:30:33.252Z,30.12
2019-04-30T09:33:39.263Z,33.95
2019-04-30T09:36:43.756Z,38.15
2019-04-30T09:39:49.409Z,34.48
2019-04-30T09:42:53.949Z,33.85
2019-04-30T09:45:59.287Z,35.43
2019-04-30T09:49:03.745Z,36.15
2019-04-30T09:52:09.237Z,35.50
2019-04-30T09:55:13.952Z,36.80
2019-04-30T09:58:21.162Z,37.05
2019-04-30T10:01:24.323Z,35.00
2019-04-30T10:04:30.345Z,37.95
2019-04-30T10:07:34.579Z,39.50
2019-04-30T10:10:51.533Z,36.05
2019-04-30T10:13:55.777Z,41.08
2019-04-30T10:17:19.026Z,44.83
2019-04-30T10:20:31.964Z,35.30
2019-04-30T10:23:36.134Z,35.05
2019-04-30T10:26:40.427Z,30.37
2019-04-30T10:29:44.633Z,29.37
2019-04-30T10:33:10.065Z,30.17
2019-04-30T10:36:14.124Z,36.05
2019-04-30T10:39:21.398Z,34.20
2019-04-30T10:42:24.475Z,33.35
2019-04-30T10:45:28.906Z,29.00
2019-04-30T10:48:33.315Z,30.90
2019-04-30T10:51:38.780Z,28.70
2019-04-30T10:54:43.214Z,30.88
2019-04-30T10:57:49.440Z,30.27
2019-04-30T11:00:53.419Z,31.10
2019-04-30T11:03:57.756Z,31.77
2019-04-30T11:07:01.980Z,33.20
2019-04-30T11:10:08.653Z,33.28
2019-04-30T11:13:12.568Z,35.73
2019-04-30T11:16:18.749Z,35.92
2019-04-30T11:19:22.903Z,36.93
2019-04-30T11:22:27.586Z,37.78
2019-04-30T11:25:32.569Z,35.55
2019-04-30T11:28:37.598Z,34.70
2019-04-30T11:31:54.453Z,35.88
2019-04-30T11:34:58.925Z,33.35
2019-04-30T11:38:03.226Z,34.83
2019-04-30T11:41:08.679Z,34.75
2019-04-30T11:44:13.274Z,33.80
2019-04-30T11:47:26.778Z,36.25
2019-04-30T11:50:31.051Z,33.50
2019-04-30T11:53:35.441Z,34.35
2019-04-30T11:56:39.663Z,33.78
2019-04-30T11:59:43.988Z,35.63
2019-04-30T12:02:52.683Z,34.63
2019-04-30T12:05:54.382Z,33.78
2019-04-30T12:09:16.429Z,33.90
2019-04-30T12:12:20.742Z,37.53
2019-04-30T12:15:24.946Z,34.10
2019-04-30T12:18:29.298Z,33.75
2019-04-30T12:21:33.565Z,33.83
2019-04-30T12:24:38.832Z,33.75
2019-04-30T12:27:43.385Z,32.35
2019-04-30T12:30:48.957Z,31.40
2019-04-30T12:33:53.342Z,31.75
2019-04-30T12:36:59.568Z,33.13
2019-04-30T12:40:03.966Z,29.90
2019-04-30T12:43:08.284Z,31.57
2019-04-30T12:46:12.573Z,32.55
2019-04-30T12:49:18.870Z,33.42
2019-04-30T12:52:29.684Z,32.20
2019-04-30T12:56:02.122Z,33.38
2019-04-30T12:59:06.503Z,34.25
2019-04-30T13:02:11.139Z,33.00
2019-04-30T13:05:15.797Z,32.67
2019-04-30T13:08:21.360Z,32.35
2019-04-30T13:11:26.855Z,31.70
2019-04-30T13:14:31.975Z,32.00
2019-04-30T13:17:36.655Z,31.33
2019-04-30T13:20:41.045Z,30.72
2019-04-30T13:23:45.356Z,29.15
2019-04-30T13:26:49.602Z,31.23
2019-04-30T13:30:00.583Z,29.52
2019-04-30T13:33:26.589Z,28.65
2019-04-30T13:36:30.893Z,29.10
2019-04-30T13:39:50.153Z,31.10
2019-04-30T13:42:49.091Z,30.70
2019-04-30T13:45:53.597Z,30.08
2019-04-30T13:48:57.886Z,27.55
2019-04-30T13:52:02.176Z,29.85
2019-04-30T13:55:06.670Z,30.20
2019-04-30T13:58:11.019Z,29.65
2019-04-30T14:01:15.305Z,27.65
2019-04-30T14:04:33.779Z,28.15
2019-04-30T14:07:55.638Z,30.12
2019-04-30T14:11:00.040Z,28.77
2019-04-30T14:14:04.381Z,27.75
2019-04-30T14:17:09.283Z,28.27
2019-04-30T14:20:14.267Z,28.70
2019-04-30T14:23:18.698Z,30.40
2019-04-30T14:26:22.960Z,29.57
2019-04-30T14:29:28.451Z,30.85
2019-04-30T14:32:33.695Z,31.40
2019-04-30T14:35:38.603Z,30.02
2019-04-30T14:38:43.217Z,30.70
2019-04-30T14:41:51.146Z,30.90
2019-04-30T14:45:02.280Z,32.08
2019-04-30T14:48:23.521Z,31.30
2019-04-30T14:51:27.910Z,29.95
2019-04-30T14:54:50.244Z,31.12
2019-04-30T14:58:15.555Z,32.33
2019-04-30T15:01:35.708Z,30.27
2019-04-30T15:04:39.990Z,32.50
2019-04-30T15:07:44.408Z,33.28
2019-04-30T15:10:48.639Z,33.05
2019-04-30T15:13:52.900Z,32.53
2019-04-30T15:16:57.333Z,32.98
2019-04-30T15:20:01.682Z,31.77
2019-04-30T15:23:22.117Z,32.23
2019-04-30T15:26:28.601Z,32.42
2019-04-30T15:29:33.019Z,32.23
2019-04-30T15:32:39.958Z,32.30
2019-04-30T15:35:44.327Z,33.02
2019-04-30T15:39:06.888Z,31.52
2019-04-30T15:42:12.635Z,31.17
2019-04-30T15:45:19.162Z,32.28
2019-04-30T15:48:24.819Z,32.90
2019-04-30T15:51:29.627Z,31.60
2019-04-30T15:54:33.986Z,32.25
2019-04-30T15:57:56.822Z,33.18
2019-04-30T16:04:04.822Z,32.10
2019-04-30T16:07:09.078Z,29.95
2019-04-30T16:10:28.600Z,32.15
2019-04-30T16:13:39.476Z,31.65
2019-04-30T16:16:48.132Z,32.23
2019-04-30T16:19:52.534Z,32.15
2019-04-30T16:22:58.999Z,31.85
2019-04-30T16:26:03.134Z,32.42
2019-04-30T16:29:09.820Z,31.30
2019-04-30T16:32:14.394Z,31.20
2019-04-30T16:35:19.673Z,31.73
2019-04-30T16:38:24.069Z,31.77
2019-04-30T16:41:31.553Z,32.17
2019-04-30T16:44:34.246Z,33.25
2019-04-30T16:47:38.534Z,33.40
2019-04-30T16:50:42.779Z,32.50
2019-04-30T16:53:48.703Z,33.02
2019-04-30T16:57:03.375Z,33.78
2019-04-30T16:59:59.577Z,32.95
2019-04-30T17:03:09.197Z,35.15
2019-04-30T17:06:17.396Z,33.45
2019-04-30T17:09:28.894Z,33.70
2019-04-30T17:12:40.551Z,33.50
2019-04-30T17:15:44.917Z,33.20
2019-04-30T17:18:50.045Z,32.03
2019-04-30T17:21:54.519Z,32.63
2019-04-30T17:24:58.911Z,32.53
2019-04-30T17:28:03.099Z,31.37
2019-04-30T17:31:09.565Z,31.15
2019-04-30T17:34:13.546Z,31.75
2019-04-30T17:37:19.003Z,31.07
2019-04-30T17:40:23.396Z,33.10
2019-04-30T17:43:27.653Z,32.28
2019-04-30T17:46:32.040Z,32.33
2019-04-30T17:49:37.185Z,31.80
2019-04-30T17:52:41.534Z,30.90
2019-04-30T17:55:46.177Z,32.35
2019-04-30T17:58:50.586Z,29.75
2019-04-30T18:01:59.749Z,30.35
2019-04-30T18:05:04.752Z,30.48
2019-04-30T18:08:09.380Z,28.85
2019-04-30T18:11:13.611Z,30.27
2019-04-30T18:14:18.721Z,29.60
2019-04-30T18:17:24.944Z,29.48
2019-04-30T18:20:34.802Z,30.35
2019-04-30T18:23:58.518Z,31.93
2019-04-30T18:27:14.737Z,30.00
2019-04-30T18:30:21.400Z,30.43
2019-04-30T18:33:25.843Z,30.95
2019-04-30T18:36:30.191Z,30.82
2019-04-30T18:39:34.489Z,30.60
2019-04-30T18:42:39.564Z,31.48
2019-04-30T18:45:44.131Z,30.88
2019-04-30T18:48:49.404Z,31.00
2019-04-30T18:51:54.634Z,30.90
2019-04-30T18:54:59.508Z,30.55
2019-04-30T18:58:03.984Z,30.95
2019-04-30T19:01:09.338Z,31.17
2019-04-30T19:04:13.892Z,31.62
2019-04-30T19:07:32.769Z,32.10
2019-04-30T19:11:02.396Z,30.40
2019-04-30T19:14:31.534Z,31.65
2019-04-30T19:17:49.463Z,32.65
2019-04-30T19:20:54.923Z,31.37
2019-04-30T19:23:59.277Z,30.85
2019-04-30T19:27:03.630Z,32.40
2019-04-30T19:30:09.317Z,32.45
2019-04-30T19:33:13.728Z,32.13
2019-04-30T19:36:20.674Z,32.78
2019-04-30T19:39:24.159Z,33.28
2019-04-30T19:42:29.532Z,32.13
2019-04-30T19:45:34.542Z,32.00
2019-04-30T19:48:38.871Z,32.98
2019-04-30T19:51:43.630Z,32.80
2019-04-30T19:54:48.797Z,32.45
2019-04-30T19:57:55.892Z,32.35
2019-04-30T20:01:00.324Z,33.30
2019-04-30T20:04:04.552Z,32.23
2019-04-30T20:07:08.895Z,33.30
2019-04-30T20:10:13.653Z,32.95
2019-04-30T20:13:30.596Z,33.23
2019-04-30T20:16:24.303Z,33.63
2019-04-30T20:19:30.619Z,33.65
2019-04-30T20:22:35.047Z,31.93
2019-04-30T20:25:39.392Z,32.13
2019-04-30T20:28:43.756Z,34.45
2019-04-30T20:31:48.690Z,35.05
2019-04-30T20:34:53.141Z,33.45
2019-04-30T20:38:25.124Z,34.00
2019-04-30T20:41:30.020Z,36.95
2019-04-30T20:44:34.492Z,35.43
2019-04-30T20:47:39.680Z,35.60
2019-04-30T20:50:44.233Z,34.05
2019-04-30T20:53:49.186Z,36.28
2019-04-30T20:56:53.744Z,34.40
2019-04-30T20:59:59.886Z,31.87
2019-04-30T21:03:04.251Z,38.58
2019-04-30T21:06:08.876Z,34.65
2019-04-30T21:09:13.329Z,34.78
2019-04-30T21:12:18.754Z,37.00
2019-04-30T21:15:23.546Z,35.13
2019-04-30T21:18:31.897Z,32.48
2019-04-30T21:21:33.922Z,33.15
2019-04-30T21:24:38.137Z,33.98
2019-04-30T21:27:42.435Z,33.90
2019-04-30T21:30:46.726Z,34.38
2019-04-30T21:33:53.706Z,31.77
2019-04-30T21:36:59.664Z,33.13
2019-04-30T21:40:04.566Z,30.25
2019-04-30T21:43:08.784Z,31.55
2019-04-30T21:46:13.128Z,33.70
2019-04-30T21:49:17.400Z,34.75
2019-04-30T21:52:21.806Z,33.20
2019-04-30T21:55:26.022Z,32.85
2019-04-30T21:58:30.284Z,32.40
2019-04-30T22:01:34.707Z,32.93
2019-04-30T22:04:39.062Z,35.63
2019-04-30T22:07:43.316Z,35.95
2019-04-30T22:10:47.768Z,35.92
2019-04-30T22:13:51.971Z,34.58
2019-04-30T22:16:56.332Z,35.28
2019-04-30T22:20:00.530Z,33.10
2019-04-30T22:23:04.838Z,35.65
2019-04-30T22:26:09.057Z,36.35
2019-04-30T22:29:13.433Z,35.88
2019-04-30T22:32:17.694Z,38.17
2019-04-30T22:35:39.665Z,37.80
2019-04-30T22:39:02.931Z,36.67
2019-04-30T22:42:30.674Z,36.80
2019-04-30T22:45:40.625Z,36.88
2019-04-30T22:48:44.898Z,35.58
2019-04-30T22:51:49.162Z,35.68
2019-04-30T22:54:53.797Z,36.42
2019-04-30T22:57:58.014Z,36.45
2019-04-30T23:01:20.064Z,37.08
2019-04-30T23:04:33.013Z,33.93
2019-04-30T23:07:37.334Z,34.92
2019-04-30T23:10:41.525Z,37.80
2019-04-30T23:13:45.793Z,39.05
2019-04-30T23:16:50.006Z,38.30
2019-04-30T23:19:54.384Z,39.90
2019-04-30T23:22:58.752Z,36.00
2019-04-30T23:26:03.179Z,37.78
2019-04-30T23:29:07.389Z,36.75
2019-04-30T23:32:13.565Z,35.63
2019-04-30T23:35:17.680Z,36.38
2019-04-30T23:38:21.989Z,37.33
2019-04-30T23:41:26.273Z,37.42
2019-04-30T23:44:30.510Z,36.58
2019-04-30T23:47:34.818Z,34.35
2019-04-30T23:50:39.058Z,36.15
2019-04-30T23:53:43.355Z,36.48
2019-04-30T23:56:47.665Z,34.53
2019-04-30T23:59:51.938Z,34.70
